sensor_id;sensor_type;location;lat;lon;timestamp;pressure;altitude;pressure_sealevel;temperature;humidity
6194;BME280;3130;41.564;23.280;2024-01-27T00:02:15;99512.69;;;2.98;67.65
6194;BME280;3130;41.564;23.280;2024-01-27T00:04:42;99515.25;;;2.97;67.95
6194;BME280;3130;41.564;23.280;2024-01-27T00:07:11;99519.41;;;2.99;67.85
6194;BME280;3130;41.564;23.280;2024-01-27T00:09:38;99513.50;;;2.99;67.52
6194;BME280;3130;41.564;23.280;2024-01-27T00:12:07;99506.03;;;2.93;67.39
6194;BME280;3130;41.564;23.280;2024-01-27T00:14:38;99526.72;;;3.14;66.32
6194;BME280;3130;41.564;23.280;2024-01-27T00:17:06;99508.44;;;2.99;66.00
6194;BME280;3130;41.564;23.280;2024-01-27T00:19:33;99540.13;;;3.18;65.91
6194;BME280;3130;41.564;23.280;2024-01-27T00:22:00;99508.28;;;3.06;65.33
6194;BME280;3130;41.564;23.280;2024-01-27T00:24:29;99475.97;;;2.78;65.83
6194;BME280;3130;41.564;23.280;2024-01-27T00:26:56;99517.00;;;2.94;65.47
6194;BME280;3130;41.564;23.280;2024-01-27T00:29:24;99524.28;;;3.08;66.03
6194;BME280;3130;41.564;23.280;2024-01-27T00:31:51;99534.47;;;3.07;65.50
6194;BME280;3130;41.564;23.280;2024-01-27T00:34:20;99546.13;;;3.15;65.32
6194;BME280;3130;41.564;23.280;2024-01-27T00:36:47;99556.09;;;3.21;65.76
6194;BME280;3130;41.564;23.280;2024-01-27T00:39:15;99540.41;;;3.06;66.02
6194;BME280;3130;41.564;23.280;2024-01-27T00:41:44;99549.72;;;3.04;66.48
6194;BME280;3130;41.564;23.280;2024-01-27T00:44:11;99553.13;;;3.03;66.57
6194;BME280;3130;41.564;23.280;2024-01-27T00:46:39;99554.25;;;2.89;66.80
6194;BME280;3130;41.564;23.280;2024-01-27T00:49:06;99550.94;;;2.85;67.52
6194;BME280;3130;41.564;23.280;2024-01-27T00:51:33;99540.13;;;2.77;67.58
6194;BME280;3130;41.564;23.280;2024-01-27T00:54:01;99562.59;;;2.92;67.75
6194;BME280;3130;41.564;23.280;2024-01-27T00:56:28;99533.38;;;2.78;68.77
6194;BME280;3130;41.564;23.280;2024-01-27T00:58:56;99553.38;;;2.90;68.49
6194;BME280;3130;41.564;23.280;2024-01-27T01:01:24;99549.06;;;2.95;67.62
6194;BME280;3130;41.564;23.280;2024-01-27T01:03:51;99527.25;;;2.89;67.03
6194;BME280;3130;41.564;23.280;2024-01-27T01:06:17;99554.00;;;3.00;66.16
6194;BME280;3130;41.564;23.280;2024-01-27T01:08:44;99560.72;;;3.01;67.16
6194;BME280;3130;41.564;23.280;2024-01-27T01:11:12;99559.25;;;2.90;67.42
6194;BME280;3130;41.564;23.280;2024-01-27T01:13:40;99499.28;;;2.51;67.08
6194;BME280;3130;41.564;23.280;2024-01-27T01:16:09;99549.13;;;2.90;66.97
6194;BME280;3130;41.564;23.280;2024-01-27T01:18:36;99541.69;;;2.83;67.52
6194;BME280;3130;41.564;23.280;2024-01-27T01:21:04;99517.59;;;2.64;66.92
6194;BME280;3130;41.564;23.280;2024-01-27T01:23:31;99548.31;;;2.90;67.27
6194;BME280;3130;41.564;23.280;2024-01-27T01:25:59;99548.47;;;2.82;68.18
6194;BME280;3130;41.564;23.280;2024-01-27T01:28:26;99546.84;;;2.80;68.98
6194;BME280;3130;41.564;23.280;2024-01-27T01:30:54;99549.63;;;2.66;68.33
6194;BME280;3130;41.564;23.280;2024-01-27T01:33:23;99552.97;;;2.67;68.96
6194;BME280;3130;41.564;23.280;2024-01-27T01:35:50;99552.47;;;2.48;69.30
6194;BME280;3130;41.564;23.280;2024-01-27T01:38:17;99550.63;;;2.58;69.24
6194;BME280;3130;41.564;23.280;2024-01-27T01:40:44;99545.50;;;2.59;69.46
6194;BME280;3130;41.564;23.280;2024-01-27T01:43:12;99517.66;;;2.59;68.99
6194;BME280;3130;41.564;23.280;2024-01-27T01:45:39;99533.47;;;2.72;68.00
6194;BME280;3130;41.564;23.280;2024-01-27T01:48:07;99536.09;;;2.67;67.92
6194;BME280;3130;41.564;23.280;2024-01-27T01:50:36;99524.19;;;2.72;68.18
6194;BME280;3130;41.564;23.280;2024-01-27T01:53:04;99516.47;;;2.78;67.22
6194;BME280;3130;41.564;23.280;2024-01-27T01:55:32;99497.97;;;2.75;67.46
6194;BME280;3130;41.564;23.280;2024-01-27T01:57:59;99503.09;;;2.72;68.29
6194;BME280;3130;41.564;23.280;2024-01-27T02:00:27;99514.06;;;2.72;67.58
6194;BME280;3130;41.564;23.280;2024-01-27T02:02:54;99507.44;;;2.65;68.42
6194;BME280;3130;41.564;23.280;2024-01-27T02:05:22;99513.28;;;2.69;68.53
6194;BME280;3130;41.564;23.280;2024-01-27T02:07:50;99513.13;;;2.78;67.25
6194;BME280;3130;41.564;23.280;2024-01-27T02:10:21;99514.88;;;2.73;68.33
6194;BME280;3130;41.564;23.280;2024-01-27T02:12:49;99407.13;;;1.74;68.66
6194;BME280;3130;41.564;23.280;2024-01-27T02:15:16;99439.56;;;1.98;69.62
6194;BME280;3130;41.564;23.280;2024-01-27T02:17:44;99517.50;;;2.23;69.90
6194;BME280;3130;41.564;23.280;2024-01-27T02:20:11;99518.28;;;2.26;69.87
6194;BME280;3130;41.564;23.280;2024-01-27T02:22:39;99516.47;;;2.33;69.29
6194;BME280;3130;41.564;23.280;2024-01-27T02:25:07;99514.03;;;2.28;69.44
6194;BME280;3130;41.564;23.280;2024-01-27T02:27:34;99514.53;;;2.47;69.29
6194;BME280;3130;41.564;23.280;2024-01-27T02:30:02;99519.72;;;2.39;69.69
6194;BME280;3130;41.564;23.280;2024-01-27T02:32:29;99517.28;;;2.36;69.54
6194;BME280;3130;41.564;23.280;2024-01-27T02:34:57;99528.22;;;2.37;69.25
6194;BME280;3130;41.564;23.280;2024-01-27T02:37:24;99529.16;;;2.31;69.82
6194;BME280;3130;41.564;23.280;2024-01-27T02:39:51;99397.19;;;1.65;69.66
6194;BME280;3130;41.564;23.280;2024-01-27T02:42:20;99528.13;;;2.43;69.13
6194;BME280;3130;41.564;23.280;2024-01-27T02:44:47;99523.88;;;2.43;69.32
6194;BME280;3130;41.564;23.280;2024-01-27T02:47:14;99510.81;;;2.19;69.49
6194;BME280;3130;41.564;23.280;2024-01-27T02:49:41;99527.63;;;2.21;70.32
6194;BME280;3130;41.564;23.280;2024-01-27T02:52:09;99518.47;;;2.16;70.48
6194;BME280;3130;41.564;23.280;2024-01-27T02:54:36;99520.31;;;2.08;70.90
6194;BME280;3130;41.564;23.280;2024-01-27T02:57:04;99520.13;;;2.17;70.34
6194;BME280;3130;41.564;23.280;2024-01-27T02:59:32;99518.38;;;2.20;70.67
6194;BME280;3130;41.564;23.280;2024-01-27T03:02:00;99399.94;;;1.50;71.20
6194;BME280;3130;41.564;23.280;2024-01-27T03:04:27;99490.81;;;2.05;70.65
6194;BME280;3130;41.564;23.280;2024-01-27T03:06:54;99507.41;;;2.21;70.61
6194;BME280;3130;41.564;23.280;2024-01-27T03:09:21;99488.16;;;2.14;70.43
6194;BME280;3130;41.564;23.280;2024-01-27T03:11:49;99490.72;;;2.11;71.49
6194;BME280;3130;41.564;23.280;2024-01-27T03:14:16;99497.47;;;2.12;71.39
6194;BME280;3130;41.564;23.280;2024-01-27T03:16:45;99488.50;;;1.94;71.60
6194;BME280;3130;41.564;23.280;2024-01-27T03:19:12;99499.44;;;1.94;72.66
6194;BME280;3130;41.564;23.280;2024-01-27T03:21:39;99488.59;;;1.89;72.34
6194;BME280;3130;41.564;23.280;2024-01-27T03:24:06;99499.41;;;1.97;71.90
6194;BME280;3130;41.564;23.280;2024-01-27T03:26:34;99489.84;;;2.14;71.52
6194;BME280;3130;41.564;23.280;2024-01-27T03:29:01;99498.94;;;2.24;70.96
6194;BME280;3130;41.564;23.280;2024-01-27T03:31:30;99503.97;;;2.25;70.54
6194;BME280;3130;41.564;23.280;2024-01-27T03:33:59;99503.47;;;2.07;71.75
6194;BME280;3130;41.564;23.280;2024-01-27T03:36:27;99505.19;;;2.03;72.32
6194;BME280;3130;41.564;23.280;2024-01-27T03:38:56;99486.91;;;1.88;72.04
6194;BME280;3130;41.564;23.280;2024-01-27T03:41:23;99491.00;;;1.97;72.58
6194;BME280;3130;41.564;23.280;2024-01-27T03:43:51;99488.38;;;2.01;72.47
6194;BME280;3130;41.564;23.280;2024-01-27T03:46:18;99470.03;;;1.89;72.79
6194;BME280;3130;41.564;23.280;2024-01-27T03:48:45;99480.75;;;2.04;72.48
6194;BME280;3130;41.564;23.280;2024-01-27T03:51:14;99480.72;;;2.05;72.60
6194;BME280;3130;41.564;23.280;2024-01-27T03:53:41;99479.94;;;2.02;72.51
6194;BME280;3130;41.564;23.280;2024-01-27T03:56:11;99477.94;;;2.19;72.12
6194;BME280;3130;41.564;23.280;2024-01-27T03:58:38;99483.53;;;2.36;71.62
6194;BME280;3130;41.564;23.280;2024-01-27T04:01:06;99400.88;;;1.93;71.33
6194;BME280;3130;41.564;23.280;2024-01-27T04:03:33;99474.56;;;2.64;70.56
6194;BME280;3130;41.564;23.280;2024-01-27T04:06:00;99433.50;;;2.06;71.06
6194;BME280;3130;41.564;23.280;2024-01-27T04:08:30;99488.75;;;2.28;71.61
6194;BME280;3130;41.564;23.280;2024-01-27T04:10:57;99479.44;;;2.30;71.84
6194;BME280;3130;41.564;23.280;2024-01-27T04:13:24;99461.16;;;2.16;71.09
6194;BME280;3130;41.564;23.280;2024-01-27T04:15:52;99489.47;;;2.35;71.68
6194;BME280;3130;41.564;23.280;2024-01-27T04:18:19;99473.50;;;2.31;71.15
6194;BME280;3130;41.564;23.280;2024-01-27T04:20:46;99411.44;;;2.14;71.30
6194;BME280;3130;41.564;23.280;2024-01-27T04:23:14;99452.06;;;2.50;70.51
6194;BME280;3130;41.564;23.280;2024-01-27T04:25:44;99492.56;;;2.91;70.92
6194;BME280;3130;41.564;23.280;2024-01-27T04:28:11;99495.03;;;2.94;70.00
6194;BME280;3130;41.564;23.280;2024-01-27T04:30:39;99467.97;;;2.57;71.17
6194;BME280;3130;41.564;23.280;2024-01-27T04:33:06;99498.13;;;2.67;71.41
6194;BME280;3130;41.564;23.280;2024-01-27T04:35:33;99504.00;;;2.69;71.57
6194;BME280;3130;41.564;23.280;2024-01-27T04:38:01;99497.06;;;2.79;71.33
6194;BME280;3130;41.564;23.280;2024-01-27T04:40:28;99508.25;;;2.67;71.35
6194;BME280;3130;41.564;23.280;2024-01-27T04:42:57;99508.66;;;2.46;72.67
6194;BME280;3130;41.564;23.280;2024-01-27T04:45:24;99507.84;;;2.44;72.62
6194;BME280;3130;41.564;23.280;2024-01-27T04:47:51;99454.75;;;1.96;73.26
6194;BME280;3130;41.564;23.280;2024-01-27T04:50:19;99498.75;;;2.34;72.73
6194;BME280;3130;41.564;23.280;2024-01-27T04:52:46;99499.75;;;2.24;73.33
6194;BME280;3130;41.564;23.280;2024-01-27T04:55:14;99502.28;;;2.26;74.47
6194;BME280;3130;41.564;23.280;2024-01-27T04:57:41;99513.09;;;2.34;73.62
6194;BME280;3130;41.564;23.280;2024-01-27T05:00:11;99510.28;;;2.49;73.69
6194;BME280;3130;41.564;23.280;2024-01-27T05:02:39;99497.19;;;2.27;74.39
6194;BME280;3130;41.564;23.280;2024-01-27T05:05:07;99473.78;;;2.15;74.70
6194;BME280;3130;41.564;23.280;2024-01-27T05:07:34;99484.56;;;2.26;74.35
6194;BME280;3130;41.564;23.280;2024-01-27T05:10:02;99502.16;;;2.33;73.96
6194;BME280;3130;41.564;23.280;2024-01-27T05:12:29;99483.63;;;2.30;73.71
6194;BME280;3130;41.564;23.280;2024-01-27T05:14:56;99515.94;;;2.63;73.60
6194;BME280;3130;41.564;23.280;2024-01-27T05:17:25;99506.53;;;2.68;73.37
6194;BME280;3130;41.564;23.280;2024-01-27T05:19:52;99502.03;;;2.83;73.22
6194;BME280;3130;41.564;23.280;2024-01-27T05:22:19;99465.22;;;2.67;71.89
6194;BME280;3130;41.564;23.280;2024-01-27T05:24:47;99469.97;;;2.82;72.18
6194;BME280;3130;41.564;23.280;2024-01-27T05:27:14;99458.97;;;2.83;71.75
6194;BME280;3130;41.564;23.280;2024-01-27T05:29:42;99507.53;;;3.01;72.94
6194;BME280;3130;41.564;23.280;2024-01-27T05:32:09;99514.69;;;3.24;72.10
6194;BME280;3130;41.564;23.280;2024-01-27T05:34:38;99517.84;;;3.33;72.29
6194;BME280;3130;41.564;23.280;2024-01-27T05:37:05;99390.97;;;2.67;71.93
6194;BME280;3130;41.564;23.280;2024-01-27T05:39:32;99516.56;;;3.52;71.05
6194;BME280;3130;41.564;23.280;2024-01-27T05:41:59;99474.38;;;3.51;70.76
6194;BME280;3130;41.564;23.280;2024-01-27T05:44:26;99474.50;;;3.45;71.23
6194;BME280;3130;41.564;23.280;2024-01-27T05:46:54;99523.50;;;3.81;70.12
6194;BME280;3130;41.564;23.280;2024-01-27T05:49:21;99523.31;;;3.90;70.37
6194;BME280;3130;41.564;23.280;2024-01-27T05:51:50;99527.34;;;3.96;70.58
6194;BME280;3130;41.564;23.280;2024-01-27T05:54:17;99524.72;;;4.01;68.87
6194;BME280;3130;41.564;23.280;2024-01-27T05:56:45;99514.53;;;4.02;69.57
6194;BME280;3130;41.564;23.280;2024-01-27T05:59:12;99534.50;;;4.16;69.11
6194;BME280;3130;41.564;23.280;2024-01-27T06:01:39;99527.69;;;4.18;68.56
6194;BME280;3130;41.564;23.280;2024-01-27T06:04:06;99477.88;;;4.14;68.71
6194;BME280;3130;41.564;23.280;2024-01-27T06:06:34;99506.47;;;4.20;68.42
6194;BME280;3130;41.564;23.280;2024-01-27T06:09:02;99505.13;;;4.39;68.93
6194;BME280;3130;41.564;23.280;2024-01-27T06:11:30;99535.03;;;4.60;69.67
6194;BME280;3130;41.564;23.280;2024-01-27T06:13:57;99520.88;;;4.52;69.38
6194;BME280;3130;41.564;23.280;2024-01-27T06:16:25;99510.94;;;4.44;69.46
6194;BME280;3130;41.564;23.280;2024-01-27T06:18:52;99541.53;;;4.70;70.43
6194;BME280;3130;41.564;23.280;2024-01-27T06:21:20;99540.38;;;4.82;71.68
6194;BME280;3130;41.564;23.280;2024-01-27T06:23:47;99516.41;;;4.60;72.89
6194;BME280;3130;41.564;23.280;2024-01-27T06:26:16;99542.00;;;4.54;73.81
6194;BME280;3130;41.564;23.280;2024-01-27T06:28:44;99533.38;;;4.59;74.89
6194;BME280;3130;41.564;23.280;2024-01-27T06:31:11;99537.81;;;4.83;75.07
6194;BME280;3130;41.564;23.280;2024-01-27T06:33:40;99546.69;;;4.99;74.85
6194;BME280;3130;41.564;23.280;2024-01-27T06:36:07;99554.25;;;5.00;76.00
6194;BME280;3130;41.564;23.280;2024-01-27T06:38:37;99557.88;;;5.22;76.01
6194;BME280;3130;41.564;23.280;2024-01-27T06:41:04;99541.09;;;4.87;75.38
6194;BME280;3130;41.564;23.280;2024-01-27T06:43:33;99548.88;;;4.81;77.66
6194;BME280;3130;41.564;23.280;2024-01-27T06:46:00;99555.69;;;4.79;78.64
6194;BME280;3130;41.564;23.280;2024-01-27T06:48:27;99544.41;;;4.58;79.72
6194;BME280;3130;41.564;23.280;2024-01-27T06:50:54;99560.81;;;4.77;79.37
6194;BME280;3130;41.564;23.280;2024-01-27T06:53:22;99558.78;;;4.58;80.11
6194;BME280;3130;41.564;23.280;2024-01-27T06:55:49;99565.97;;;4.74;80.16
6194;BME280;3130;41.564;23.280;2024-01-27T06:58:16;99564.75;;;4.89;79.87
6194;BME280;3130;41.564;23.280;2024-01-27T07:00:45;99562.78;;;4.98;79.88
6194;BME280;3130;41.564;23.280;2024-01-27T07:03:12;99562.50;;;4.78;79.91
6194;BME280;3130;41.564;23.280;2024-01-27T07:05:39;99567.50;;;4.81;81.33
6194;BME280;3130;41.564;23.280;2024-01-27T07:08:07;99564.47;;;4.67;81.06
6194;BME280;3130;41.564;23.280;2024-01-27T07:10:34;99474.00;;;4.31;81.06
6194;BME280;3130;41.564;23.280;2024-01-27T07:13:02;99562.75;;;4.99;81.26
6194;BME280;3130;41.564;23.280;2024-01-27T07:15:29;99540.88;;;4.94;80.66
6194;BME280;3130;41.564;23.280;2024-01-27T07:17:58;99577.47;;;5.17;81.54
6194;BME280;3130;41.564;23.280;2024-01-27T07:20:25;99577.63;;;5.13;81.28
6194;BME280;3130;41.564;23.280;2024-01-27T07:22:54;99566.91;;;5.02;82.57
6194;BME280;3130;41.564;23.280;2024-01-27T07:25:22;99571.28;;;4.97;82.61
6194;BME280;3130;41.564;23.280;2024-01-27T07:27:49;99558.28;;;4.77;83.46
6194;BME280;3130;41.564;23.280;2024-01-27T07:30:16;99577.75;;;4.77;85.18
6194;BME280;3130;41.564;23.280;2024-01-27T07:32:43;99554.56;;;4.58;85.53
6194;BME280;3130;41.564;23.280;2024-01-27T07:35:12;99540.19;;;4.57;85.75
6194;BME280;3130;41.564;23.280;2024-01-27T07:37:39;99583.34;;;4.91;85.84
6194;BME280;3130;41.564;23.280;2024-01-27T07:40:08;99562.78;;;4.66;86.66
6194;BME280;3130;41.564;23.280;2024-01-27T07:42:36;99585.22;;;4.83;87.20
6194;BME280;3130;41.564;23.280;2024-01-27T07:45:04;99581.50;;;4.64;88.34
6194;BME280;3130;41.564;23.280;2024-01-27T07:47:34;99574.53;;;4.72;89.55
6194;BME280;3130;41.564;23.280;2024-01-27T07:50:01;99525.03;;;4.54;89.82
6194;BME280;3130;41.564;23.280;2024-01-27T07:52:30;99549.06;;;4.73;89.53
6194;BME280;3130;41.564;23.280;2024-01-27T07:54:57;99559.81;;;5.13;89.29
6194;BME280;3130;41.564;23.280;2024-01-27T07:57:24;99562.19;;;5.48;88.63
6194;BME280;3130;41.564;23.280;2024-01-27T07:59:52;99555.81;;;5.62;86.60
6194;BME280;3130;41.564;23.280;2024-01-27T08:02:19;99558.56;;;5.55;83.98
6194;BME280;3130;41.564;23.280;2024-01-27T08:04:47;99569.84;;;5.46;82.01
6194;BME280;3130;41.564;23.280;2024-01-27T08:07:14;99492.97;;;4.81;81.66
6194;BME280;3130;41.564;23.280;2024-01-27T08:09:43;99565.63;;;5.18;81.44
6194;BME280;3130;41.564;23.280;2024-01-27T08:12:11;99564.41;;;5.00;81.92
6194;BME280;3130;41.564;23.280;2024-01-27T08:14:38;99549.50;;;4.89;81.54
6194;BME280;3130;41.564;23.280;2024-01-27T08:17:05;99538.91;;;4.73;82.41
6194;BME280;3130;41.564;23.280;2024-01-27T08:19:32;99560.84;;;5.06;82.01
6194;BME280;3130;41.564;23.280;2024-01-27T08:21:59;99546.53;;;5.03;82.55
6194;BME280;3130;41.564;23.280;2024-01-27T08:24:27;99542.19;;;5.07;83.91
6194;BME280;3130;41.564;23.280;2024-01-27T08:26:56;99500.53;;;5.12;83.89
6194;BME280;3130;41.564;23.280;2024-01-27T08:29:24;99510.53;;;5.18;83.69
6194;BME280;3130;41.564;23.280;2024-01-27T08:31:51;99522.00;;;5.31;82.98
6194;BME280;3130;41.564;23.280;2024-01-27T08:34:18;99479.28;;;5.15;83.08
6194;BME280;3130;41.564;23.280;2024-01-27T08:36:45;99538.03;;;5.33;83.18
6194;BME280;3130;41.564;23.280;2024-01-27T08:39:13;99528.19;;;5.23;83.75
6194;BME280;3130;41.564;23.280;2024-01-27T08:41:40;99544.84;;;5.33;83.82
6194;BME280;3130;41.564;23.280;2024-01-27T08:44:09;99527.53;;;5.16;84.71
6194;BME280;3130;41.564;23.280;2024-01-27T08:46:37;99527.13;;;5.30;84.56
6194;BME280;3130;41.564;23.280;2024-01-27T08:49:04;99529.00;;;5.52;84.67
6194;BME280;3130;41.564;23.280;2024-01-27T08:51:31;99506.06;;;5.81;84.96
6194;BME280;3130;41.564;23.280;2024-01-27T08:53:58;99507.84;;;6.29;82.43
6194;BME280;3130;41.564;23.280;2024-01-27T08:56:26;99467.47;;;6.19;80.03
6194;BME280;3130;41.564;23.280;2024-01-27T08:58:53;99477.28;;;6.54;79.09
6194;BME280;3130;41.564;23.280;2024-01-27T09:01:22;99469.16;;;6.67;78.98
6194;BME280;3130;41.564;23.280;2024-01-27T09:03:49;99495.81;;;7.04;77.67
6194;BME280;3130;41.564;23.280;2024-01-27T09:06:16;99499.59;;;7.17;77.87
6194;BME280;3130;41.564;23.280;2024-01-27T09:08:44;99501.41;;;7.37;78.20
6194;BME280;3130;41.564;23.280;2024-01-27T09:11:12;99483.25;;;7.44;78.74
6194;BME280;3130;41.564;23.280;2024-01-27T09:13:39;99503.50;;;7.70;78.07
6194;BME280;3130;41.564;23.280;2024-01-27T09:16:06;99503.81;;;7.83;77.63
6194;BME280;3130;41.564;23.280;2024-01-27T09:18:39;99493.25;;;7.92;76.25
6194;BME280;3130;41.564;23.280;2024-01-27T09:21:06;99455.97;;;7.88;76.42
6194;BME280;3130;41.564;23.280;2024-01-27T09:23:34;99484.31;;;8.01;75.99
6194;BME280;3130;41.564;23.280;2024-01-27T09:26:02;99488.19;;;8.11;75.81
6194;BME280;3130;41.564;23.280;2024-01-27T09:28:30;99476.09;;;7.95;76.59
6194;BME280;3130;41.564;23.280;2024-01-27T09:30:57;99458.84;;;8.21;77.04
6194;BME280;3130;41.564;23.280;2024-01-27T09:33:25;99449.59;;;8.57;76.18
6194;BME280;3130;41.564;23.280;2024-01-27T09:35:53;99435.41;;;8.89;73.44
6194;BME280;3130;41.564;23.280;2024-01-27T09:38:21;99412.94;;;9.13;69.64
6194;BME280;3130;41.564;23.280;2024-01-27T09:40:48;99387.69;;;9.06;67.33
6194;BME280;3130;41.564;23.280;2024-01-27T09:43:16;99405.78;;;9.38;66.31
6194;BME280;3130;41.564;23.280;2024-01-27T09:45:45;99391.97;;;9.24;65.12
6194;BME280;3130;41.564;23.280;2024-01-27T09:48:12;99389.63;;;9.19;64.89
6194;BME280;3130;41.564;23.280;2024-01-27T09:50:41;99390.88;;;9.29;64.12
6194;BME280;3130;41.564;23.280;2024-01-27T09:53:10;99374.66;;;9.29;63.88
6194;BME280;3130;41.564;23.280;2024-01-27T09:55:38;99387.69;;;9.24;62.89
6194;BME280;3130;41.564;23.280;2024-01-27T09:58:05;99413.97;;;9.09;64.26
6194;BME280;3130;41.564;23.280;2024-01-27T10:00:34;99405.38;;;9.29;63.00
6194;BME280;3130;41.564;23.280;2024-01-27T10:03:03;99414.50;;;9.34;61.60
6194;BME280;3130;41.564;23.280;2024-01-27T10:05:32;99389.00;;;9.50;60.63
6194;BME280;3130;41.564;23.280;2024-01-27T10:07:59;99402.03;;;9.45;59.83
6194;BME280;3130;41.564;23.280;2024-01-27T10:10:28;99383.75;;;9.53;58.14
6194;BME280;3130;41.564;23.280;2024-01-27T10:12:58;99383.75;;;9.70;56.80
6194;BME280;3130;41.564;23.280;2024-01-27T10:15:25;99398.50;;;9.98;56.18
6194;BME280;3130;41.564;23.280;2024-01-27T10:18:03;99407.56;;;9.89;54.73
6194;BME280;3130;41.564;23.280;2024-01-27T10:20:30;99380.19;;;9.89;52.54
6194;BME280;3130;41.564;23.280;2024-01-27T10:22:58;99366.72;;;10.19;52.10
6194;BME280;3130;41.564;23.280;2024-01-27T10:25:25;99360.13;;;10.31;50.73
6194;BME280;3130;41.564;23.280;2024-01-27T10:27:57;99387.66;;;10.27;48.85
6194;BME280;3130;41.564;23.280;2024-01-27T10:30:24;99402.88;;;10.30;49.17
6194;BME280;3130;41.564;23.280;2024-01-27T10:32:55;99337.47;;;10.39;48.24
6194;BME280;3130;41.564;23.280;2024-01-27T10:35:23;99369.63;;;10.77;47.52
6194;BME280;3130;41.564;23.280;2024-01-27T10:37:51;99375.16;;;10.69;47.12
6194;BME280;3130;41.564;23.280;2024-01-27T10:40:20;99397.91;;;10.60;47.79
6194;BME280;3130;41.564;23.280;2024-01-27T10:43:01;99401.56;;;10.71;47.97
6194;BME280;3130;41.564;23.280;2024-01-27T10:45:34;99398.66;;;10.62;48.42
6194;BME280;3130;41.564;23.280;2024-01-27T10:48:02;99399.78;;;10.89;47.97
6194;BME280;3130;41.564;23.280;2024-01-27T10:50:34;99411.91;;;10.85;48.10
6194;BME280;3130;41.564;23.280;2024-01-27T10:53:03;99395.47;;;10.89;47.79
6194;BME280;3130;41.564;23.280;2024-01-27T10:55:33;99419.22;;;11.08;46.95
6194;BME280;3130;41.564;23.280;2024-01-27T10:58:03;99356.28;;;10.55;46.89
6194;BME280;3130;41.564;23.280;2024-01-27T11:00:30;99421.13;;;10.89;46.35
6194;BME280;3130;41.564;23.280;2024-01-27T11:02:59;99415.91;;;11.06;45.81
6194;BME280;3130;41.564;23.280;2024-01-27T11:05:27;99408.59;;;10.83;46.36
6194;BME280;3130;41.564;23.280;2024-01-27T11:07:56;99386.94;;;10.89;45.57
6194;BME280;3130;41.564;23.280;2024-01-27T11:10:25;99437.25;;;10.91;45.74
6194;BME280;3130;41.564;23.280;2024-01-27T11:12:56;99410.59;;;10.78;45.78
6194;BME280;3130;41.564;23.280;2024-01-27T11:15:25;99398.53;;;10.80;45.70
6194;BME280;3130;41.564;23.280;2024-01-27T11:17:56;99435.13;;;11.30;45.24
6194;BME280;3130;41.564;23.280;2024-01-27T11:20:24;99375.25;;;10.99;45.17
6194;BME280;3130;41.564;23.280;2024-01-27T11:22:51;99436.47;;;11.21;44.51
6194;BME280;3130;41.564;23.280;2024-01-27T11:25:21;99422.38;;;10.98;45.45
6194;BME280;3130;41.564;23.280;2024-01-27T11:27:49;99432.13;;;11.22;45.93
6194;BME280;3130;41.564;23.280;2024-01-27T11:30:28;99445.28;;;11.16;45.80
6194;BME280;3130;41.564;23.280;2024-01-27T11:32:56;99434.63;;;11.23;45.70
6194;BME280;3130;41.564;23.280;2024-01-27T11:35:24;99445.38;;;11.45;44.71
6194;BME280;3130;41.564;23.280;2024-01-27T11:37:51;99404.72;;;10.92;44.83
6194;BME280;3130;41.564;23.280;2024-01-27T11:40:19;99424.34;;;11.08;44.75
6194;BME280;3130;41.564;23.280;2024-01-27T11:42:54;99430.41;;;11.22;46.05
6194;BME280;3130;41.564;23.280;2024-01-27T11:45:22;99398.94;;;11.19;44.81
6194;BME280;3130;41.564;23.280;2024-01-27T11:47:51;99387.91;;;11.32;44.35
6194;BME280;3130;41.564;23.280;2024-01-27T11:50:18;99424.00;;;11.29;44.93
6194;BME280;3130;41.564;23.280;2024-01-27T11:52:46;99402.06;;;11.39;44.44
6194;BME280;3130;41.564;23.280;2024-01-27T11:55:14;99382.06;;;11.15;44.98
6194;BME280;3130;41.564;23.280;2024-01-27T11:57:42;99408.34;;;11.65;44.49
6194;BME280;3130;41.564;23.280;2024-01-27T12:00:09;99395.88;;;11.73;44.28
6194;BME280;3130;41.564;23.280;2024-01-27T12:02:37;99339.50;;;11.11;43.94
6194;BME280;3130;41.564;23.280;2024-01-27T12:05:07;99377.16;;;11.26;44.99
6194;BME280;3130;41.564;23.280;2024-01-27T12:07:35;99399.31;;;11.42;44.69
6194;BME280;3130;41.564;23.280;2024-01-27T12:10:02;99405.63;;;11.37;44.31
6194;BME280;3130;41.564;23.280;2024-01-27T12:12:30;99371.44;;;11.21;44.21
6194;BME280;3130;41.564;23.280;2024-01-27T12:14:59;99353.47;;;11.21;44.45
6194;BME280;3130;41.564;23.280;2024-01-27T12:17:28;99387.56;;;11.38;44.53
6194;BME280;3130;41.564;23.280;2024-01-27T12:19:55;99364.38;;;11.40;43.72
6194;BME280;3130;41.564;23.280;2024-01-27T12:22:25;99389.75;;;11.15;44.46
6194;BME280;3130;41.564;23.280;2024-01-27T12:24:53;99375.69;;;11.06;44.85
6194;BME280;3130;41.564;23.280;2024-01-27T12:27:21;99368.38;;;11.14;44.39
6194;BME280;3130;41.564;23.280;2024-01-27T12:29:48;99293.00;;;10.86;45.05
6194;BME280;3130;41.564;23.280;2024-01-27T12:32:17;99376.19;;;11.42;45.06
6194;BME280;3130;41.564;23.280;2024-01-27T12:34:45;99407.44;;;11.35;44.56
6194;BME280;3130;41.564;23.280;2024-01-27T12:37:13;99371.91;;;11.43;44.68
6194;BME280;3130;41.564;23.280;2024-01-27T12:39:43;99385.13;;;11.21;44.93
6194;BME280;3130;41.564;23.280;2024-01-27T12:42:10;99347.94;;;10.98;45.51
6194;BME280;3130;41.564;23.280;2024-01-27T12:44:38;99387.09;;;11.16;45.81
6194;BME280;3130;41.564;23.280;2024-01-27T12:47:06;99378.75;;;10.98;46.26
6194;BME280;3130;41.564;23.280;2024-01-27T12:49:34;99361.53;;;11.00;45.28
6194;BME280;3130;41.564;23.280;2024-01-27T12:52:03;99378.16;;;10.93;46.25
6194;BME280;3130;41.564;23.280;2024-01-27T12:54:31;99355.06;;;10.93;46.59
6194;BME280;3130;41.564;23.280;2024-01-27T12:57:00;99368.63;;;11.10;45.74
6194;BME280;3130;41.564;23.280;2024-01-27T12:59:28;99377.09;;;10.97;46.44
6194;BME280;3130;41.564;23.280;2024-01-27T13:01:55;99381.00;;;11.03;45.63
6194;BME280;3130;41.564;23.280;2024-01-27T13:04:23;99366.34;;;11.05;45.97
6194;BME280;3130;41.564;23.280;2024-01-27T13:06:50;99386.00;;;10.90;45.31
6194;BME280;3130;41.564;23.280;2024-01-27T13:09:18;99370.72;;;10.88;45.61
6194;BME280;3130;41.564;23.280;2024-01-27T13:11:46;99392.41;;;10.83;45.33
6194;BME280;3130;41.564;23.280;2024-01-27T13:14:14;99386.84;;;10.90;45.04
6194;BME280;3130;41.564;23.280;2024-01-27T13:16:44;99394.94;;;10.98;45.25
6194;BME280;3130;41.564;23.280;2024-01-27T13:19:11;99389.94;;;11.12;44.56
6194;BME280;3130;41.564;23.280;2024-01-27T13:21:38;99367.41;;;11.02;44.22
6194;BME280;3130;41.564;23.280;2024-01-27T13:24:07;99424.94;;;11.28;43.35